Flight Track Log - Related Links

Times and Time Zones

All times are in EDT time to prevent confusion due to time zone crossing. See the N201LH flight status page for this flight to view local times or setup timezone preferences in your user account.

Time Position Orientation Groundspeed Altitude Reporting Facility
EDT Latitude Longitude Course Direction KTS MPH feet Rate Location/Type
Sat 01:46:44 PM 43.1100 -76.1178 263° West 56 64 900  Level Boston Center
Sat 01:47:45 PM 43.1069 -76.1517 263° West 102 117 1,800 803 Climbing Boston Center
Sat 01:48:51 PM 43.1053 -76.2028 267° West 117 135 2,600 661 Climbing Boston Center
Sat 01:49:52 PM 43.1039 -76.2425 267° West 112 129 3,200 634 Climbing Boston Center
Sat 01:50:54 PM 43.1025 -76.2853 267° West 113 130 3,900 393 Climbing Boston Center
Sat 01:51:54 PM 43.0989 -76.3333 264° West 130 150 4,000 50 Climbing Boston Center
Sat 01:52:54 PM 43.0950 -76.3872 264° West 149 171 4,000  Level Boston Center
Sat 01:53:55 PM 43.0928 -76.4439 267° West 148 170 4,000  Level Boston Center
Sat 01:54:43 PM 43.0872 -76.4892 260° West 145 167 4,000  Level Boston Center
Sat 01:55:44 PM 43.0850 -76.5458 267° West 141 162 4,000  Level Boston Center
Sat 01:56:44 PM 43.0833 -76.5969 267° West 142 163 4,000  Level Boston Center
Sat 01:57:39 PM 43.0789 -76.6347 261° West 142 163 4,000 52 Level Cleveland Center
Sat 01:58:40 PM 43.0744 -76.6989 265° West 142 163 4,100 49 Climbing Cleveland Center
Sat 01:59:42 PM 43.0689 -76.7542 262° West 144 166 4,100  Level Cleveland Center
Sat 02:00:44 PM 43.0661 -76.8069 266° West 143 165 4,100  Level Cleveland Center
Sat 02:01:46 PM 43.0622 -76.8606 264° West 142 163 4,100  Level Cleveland Center
Sat 02:02:47 PM 43.0581 -76.9153 264° West 143 165 4,100 -81 Level Cleveland Center
Sat 02:03:00 PM 43.0594 -76.9314 277° West 145 167 4,000 -97 Descending Cleveland Center
Sat 02:03:49 PM 43.0539 -76.9703 259° West 145 167 4,000  Level Cleveland Center
Sat 02:04:01 PM 43.0542 -76.9850 271° West 145 167 4,000  Level Cleveland Center
Sat 02:04:51 PM 43.0506 -77.0342 264° West 143 165 4,000  Level Cleveland Center
Sat 02:05:01 PM 43.0511 -77.0392 279° West 142 163 4,000  Level Cleveland Center
Sat 02:06:02 PM 43.0469 -77.0989 265° West 143 165 4,000  Level Cleveland Center
Sat 02:06:54 PM 43.0422 -77.1408 261° West 142 163 4,000  Level Cleveland Center
Sat 02:07:02 PM 43.0417 -77.1525 266° West 145 167 4,000  Level Cleveland Center
Sat 02:07:56 PM 43.0386 -77.1947 264° West 143 165 4,000  Level Cleveland Center
Sat 02:08:03 PM 43.0386 -77.2064 270° West 143 165 4,000  Level Cleveland Center
Sat 02:09:04 PM 43.0353 -77.2606 265° West 143 165 4,000  Level Cleveland Center
Sat 02:10:00 PM 43.0308 -77.3031 262° West 144 166 4,000  Level Cleveland Center
Sat 02:10:04 PM 43.0319 -77.3147 277° West 144 166 4,000  Level Cleveland Center
Sat 02:11:02 PM 43.0278 -77.3594 263° West 147 169 4,000  Level Cleveland Center
Sat 02:11:05 PM 43.0283 -77.3717 274° West 150 173 4,000  Level Cleveland Center
Sat 02:12:04 PM 43.0225 -77.4258 262° West 148 170 4,000  Level Cleveland Center
Sat 02:12:05 PM 43.0225 -77.4278 270° West 149 171 4,000  Level Cleveland Center
Sat 02:13:05 PM 43.0183 -77.4825 264° West 149 171 4,000  Level Cleveland Center
Sat 02:13:06 PM 43.0189 -77.4847 289° West 151 174 4,000  Level Cleveland Center
Sat 02:14:07 PM 43.0144 -77.5444 264° West 148 170 4,000  Level Cleveland Center
Sat 02:15:07 PM 43.0108 -77.6011 265° West 146 168 4,000  Level Cleveland Center
Sat 02:15:09 PM 43.0097 -77.5942 102° East 149 171 4,000  Level Cleveland Center
Sat 02:16:11 PM 43.0053 -77.6483 264° West 145 167 4,000  Level Cleveland Center
Sat 02:17:09 PM 43.0014 -77.7117 265° West 146 168 4,000  Level Cleveland Center
Sat 02:17:13 PM 43.0000 -77.7139 229° Southwest 146 168 4,000  Level Cleveland Center
Sat 02:18:09 PM 42.9978 -77.7656 267° West 137 158 4,000  Level Cleveland Center
Sat 02:18:15 PM 42.9972 -77.7664 228° Southwest 142 163 4,000  Level Cleveland Center
Sat 02:19:10 PM 42.9947 -77.8169 266° West 135 155 4,000  Level Cleveland Center
Sat 02:19:17 PM 42.9931 -77.8167 173° South 136 157 4,000  Level Cleveland Center
Sat 02:20:18 PM 42.9894 -77.8700 265° West 139 160 4,000  Level Cleveland Center
Sat 02:21:11 PM 42.9861 -77.9214 265° West 140 161 4,000  Level Cleveland Center
Sat 02:21:20 PM 42.9856 -77.9217 200° South 139 160 4,000  Level Cleveland Center
Sat 02:22:22 PM 42.9811 -77.9739 263° West 139 160 4,000  Level Cleveland Center
Sat 02:23:24 PM 42.9764 -78.0378 264° West 140 161 4,000 48 Level Cleveland Center
Sat 02:24:26 PM 42.9719 -78.0894 263° West 140 161 4,100 48 Climbing Cleveland Center
Sat 02:25:28 PM 42.9675 -78.1453 264° West 143 165 4,100  Level Cleveland Center
Sat 02:26:30 PM 42.9633 -78.2011 264° West 141 162 4,100  Level Cleveland Center
Sat 02:27:31 PM 42.9592 -78.2583 264° West 145 167 4,100  Level Cleveland Center
Sat 02:28:33 PM 42.9561 -78.3161 266° West 146 168 4,100 -48 Level Cleveland Center
Sat 02:29:35 PM 42.9506 -78.3683 262° West 145 167 4,000 -48 Descending Cleveland Center
Sat 02:30:37 PM 42.9467 -78.4256 265° West 146 168 4,000 48 Level Cleveland Center
Sat 02:31:39 PM 42.9406 -78.4817 262° West 146 168 4,100  Climbing Cleveland Center
Sat 02:32:41 PM 42.9358 -78.5389 264° West 145 167 4,000  Descending Cleveland Center
Sat 02:33:42 PM 42.9325 -78.5969 266° West 147 169 4,100 44 Climbing Cleveland Center
Sat 02:34:57 PM 42.9333 -78.6667 271° West 147 169 4,100 -44 Level Buffalo TRACON
Sat 02:35:57 PM 42.9333 -78.7167 270° West 152 175 4,000  Descending Buffalo TRACON
Sat 02:37:03 PM 42.9500 -78.7833 289° West 154 177 4,100 48 Climbing Buffalo TRACON
Sat 02:38:03 PM 42.9500 -78.8333 270° West 154 177 4,100  Level Buffalo TRACON
Sat 02:39:03 PM 42.9500 -78.9000 270° West 151 174 4,100  Level Buffalo TRACON
Sat 02:40:03 PM 42.9667 -78.9500 295° West 148 170 4,100 -50 Level Buffalo TRACON
Sat 02:41:03 PM 42.9667 -79.0000 270° West 144 166 4,000 -53 Descending Buffalo TRACON
Sat 02:41:57 PM 42.9686 -79.0536 273° West 145 167 4,000  Level Cleveland Center
Sat 02:42:58 PM 42.9733 -79.1097 277° West 144 166 4,000  Level Cleveland Center
Sat 02:45:00 PM 42.9799 -79.2079 275° West  Level FlightAware Approximate
Sat 02:49:58 PM 43.0000 -79.4667 280° West 136 157 4,000  Level Buffalo TRACON
Sat 02:50:58 PM 43.0167 -79.5167 295° West 138 159 4,100 53 Climbing Buffalo TRACON
Sat 02:51:52 PM 43.0167 -79.5667 270° West 141 162 4,100  Level Buffalo TRACON
Sat 02:52:00 PM 43.0049 -79.5798 276° West  Level FlightAware Approximate
Sat 02:52:50 PM 43.0167 -79.6167 270° West 140 161 4,100  Level Toronto Center
Sat 02:53:00 PM 43.0090 -79.6328 276° West  Level FlightAware Approximate
Sat 02:53:50 PM 43.0167 -79.6500 270° West 140 161 4,000  Level Toronto Center
Sat 02:54:00 PM 43.0131 -79.6858 276° West  Level FlightAware Approximate
Sat 02:54:50 PM 43.0167 -79.7167 270° West 140 161 4,000  Level Toronto Center
Sat 02:55:00 PM 43.0173 -79.7388 280° West  Level FlightAware Approximate
Sat 02:55:50 PM 43.0333 -79.7667 295° West 140 161 4,000  Level Toronto Center
Sat 02:56:50 PM 43.0333 -79.8167 270° West 140 161 4,000 50 Level Toronto Center
Sat 02:57:50 PM 43.0333 -79.8833 270° West 140 161 4,100  Climbing Toronto Center
Sat 02:58:50 PM 43.0333 -79.9333 270° West 140 161 4,000 -50 Descending Toronto Center
Sat 02:59:50 PM 43.0500 -79.9833 295° West 140 161 4,000  Level Toronto Center
Sat 03:00:50 PM 43.0500 -80.0167 270° West 140 161 4,000  Level Toronto Center
Sat 03:01:50 PM 43.0500 -80.0833 270° West 140 161 4,000  Level Toronto Center
Sat 03:02:50 PM 43.0500 -80.1333 270° West 140 161 4,000 50 Level Toronto Center
Sat 03:03:50 PM 43.0500 -80.2000 270° West 140 161 4,100  Climbing Toronto Center
Sat 03:04:50 PM 43.0500 -80.2500 270° West 140 161 4,000 -50 Descending Toronto Center
Sat 03:05:50 PM 43.0500 -80.3000 270° West 130 150 4,000  Level Toronto Center
Sat 03:06:50 PM 43.0500 -80.3333 270° West 130 150 4,000  Level Toronto Center
Sat 03:07:50 PM 43.0500 -80.3833 270° West 130 150 4,000 50 Level Toronto Center
Sat 03:08:50 PM 43.0500 -80.4500 270° West 130 150 4,100  Climbing Toronto Center
Sat 03:09:50 PM 43.0500 -80.5000 270° West 130 150 4,000 -50 Descending Toronto Center
Sat 03:10:50 PM 43.0500 -80.5500 270° West 130 150 4,000 50 Level Toronto Center
Sat 03:11:50 PM 43.0500 -80.5833 270° West 130 150 4,100  Climbing Toronto Center
Sat 03:12:50 PM 43.0500 -80.6333 270° West 130 150 4,000 -50 Descending Toronto Center
Sat 03:13:50 PM 43.0500 -80.6833 270° West 130 150 4,000  Level Toronto Center
Sat 03:14:50 PM 43.0500 -80.7500 270° West 130 150 4,000 50 Level Toronto Center
Sat 03:15:50 PM 43.0500 -80.8000 270° West 130 150 4,100  Climbing Toronto Center
Sat 03:16:50 PM 43.0333 -80.8500 246° West 130 150 4,000  Descending Toronto Center
Sat 03:17:50 PM 43.0167 -80.8833 236° Southwest 130 150 4,100 50 Climbing Toronto Center
Sat 03:18:50 PM 43.0167 -80.9333 270° West 140 161 4,100  Level Toronto Center
Sat 03:19:50 PM 43.0167 -81.0000 270° West 140 161 4,100  Level Toronto Center
Sat 03:20:50 PM 43.0167 -81.0500 270° West 140 161 4,100  Level Toronto Center
Sat 03:22:50 PM 43.0167 -81.1333 270° West 140 161 4,100  Level Toronto Center
Sat 03:23:50 PM 43.0333 -81.2000 289° West 130 150 4,100  Level Toronto Center
Sat 03:24:50 PM 43.0333 -81.2500 270° West 140 161 4,100  Level Toronto Center
Sat 03:25:50 PM 43.0500 -81.3000 295° West 140 161 4,100  Level Toronto Center
Sat 03:26:50 PM 43.0500 -81.3500 270° West 140 161 4,100  Level Toronto Center
Sat 03:27:50 PM 43.0667 -81.4167 289° West 140 161 4,100  Level Toronto Center
Sat 03:28:50 PM 43.0667 -81.4667 270° West 140 161 4,100  Level Toronto Center
Sat 03:29:50 PM 43.0833 -81.5000 304° West 140 161 4,100 -50 Level Toronto Center
Sat 03:30:50 PM 43.0833 -81.5500 270° West 140 161 4,000 -50 Descending Toronto Center
Sat 03:31:50 PM 43.1000 -81.6000 295° West 130 150 4,000  Level Toronto Center
Sat 03:32:50 PM 43.1000 -81.6667 270° West 130 150 4,000  Level Toronto Center
Sat 03:33:50 PM 43.1167 -81.7167 295° West 130 150 4,000  Level Toronto Center
Sat 03:34:50 PM 43.1167 -81.7500 270° West 130 150 4,000  Level Toronto Center
Sat 03:35:50 PM 43.1333 -81.8000 295° West 130 150 4,000  Level Toronto Center
Sat 03:36:50 PM 43.1333 -81.8500 270° West 130 150 4,000  Level Toronto Center
Sat 03:37:50 PM 43.1500 -81.9000 295° West 130 150 4,000  Level Toronto Center
Sat 03:38:50 PM 43.1333 -81.9333 236° Southwest 130 150 4,000  Level Toronto Center
Sat 03:39:50 PM 43.1333 -82.0167 270° West 130 150 4,000  Level Toronto Center
Sat 03:40:50 PM 43.1500 -82.0500 304° West 130 150 4,000  Level Toronto Center
Sat 03:41:50 PM 43.1500 -82.1000 270° West 130 150 4,000  Level Toronto Center
Sat 03:42:50 PM 43.1667 -82.1500 295° West 130 150 4,000  Level Toronto Center
Sat 03:43:50 PM 43.1667 -82.2000 270° West 130 150 4,000  Level Toronto Center
Sat 03:44:50 PM 43.1833 -82.2333 304° West 130 150 4,000  Level Toronto Center
Sat 03:45:50 PM 43.1833 -82.2833 270° West 130 150 4,000  Level Toronto Center
Sat 03:46:50 PM 43.2000 -82.3500 289° West 130 150 4,000  Level Toronto Center
Sat 03:47:50 PM 43.2000 -82.4000 270° West 130 150 4,000  Level Toronto Center
Sat 03:48:50 PM 43.2167 -82.4500 295° West 130 150 4,000  Level Toronto Center
Sat 03:49:31 PM 43.2222 -82.4869 282° West 181 208 4,000  Level Cleveland Center
Sat 03:50:33 PM 43.2303 -82.5386 282° West 141 162 4,000  Level Cleveland Center
Sat 03:51:35 PM 43.2375 -82.5886 281° West 139 160 4,000  Level Cleveland Center
Sat 03:52:37 PM 43.2469 -82.6494 282° West 137 158 4,000  Level Cleveland Center
Sat 03:53:39 PM 43.2533 -82.6983 280° West 133 153 4,000  Level Cleveland Center
Sat 03:54:41 PM 43.2603 -82.7522 280° West 134 154 4,000  Level Cleveland Center
Sat 03:55:43 PM 43.2686 -82.8014 283° West 135 155 4,000  Level Cleveland Center
Sat 03:56:45 PM 43.2778 -82.8564 283° West 138 159 4,000  Level Cleveland Center
Sat 03:57:47 PM 43.2850 -82.9069 281° West 137 158 4,000  Level Cleveland Center
Sat 03:58:49 PM 43.2944 -82.9608 284° West 136 157 4,000  Level Cleveland Center
Sat 03:59:51 PM 43.3022 -83.0122 282° West 138 159 4,000  Level Cleveland Center
Sat 04:00:52 PM 43.3114 -83.0686 283° West 142 163 4,000  Level Cleveland Center
Sat 04:01:54 PM 43.3194 -83.1181 283° West 136 157 4,000 -48 Level Cleveland Center
Sat 04:02:56 PM 43.3275 -83.1736 281° West 139 160 3,900 -242 Descending Cleveland Center
Sat 04:03:58 PM 43.3375 -83.2267 285° West 144 166 3,500 -290 Descending Cleveland Center
Sat 04:05:00 PM 43.3461 -83.2886 281° West 152 175 3,300 -145 Descending Cleveland Center
Sat 04:06:02 PM 43.3544 -83.3419 282° West 146 168 3,200 -97 Descending Cleveland Center
Sat 04:07:04 PM 43.3625 -83.3986 281° West 143 165 3,100 -97 Descending Cleveland Center
Sat 04:08:06 PM 43.3700 -83.4503 281° West 141 162 3,000 -48 Descending Cleveland Center
Sat 04:09:08 PM 43.3792 -83.5064 283° West 141 162 3,000  Level Cleveland Center
Sat 04:10:10 PM 43.3869 -83.5603 281° West 143 165 3,000 -48 Level Cleveland Center
Sat 04:11:12 PM 43.3961 -83.6169 283° West 142 163 2,900 -97 Descending Cleveland Center
Sat 04:13:00 PM 43.4076 -83.7099 280° West  Level FlightAware Approximate
Sat 04:20:00 PM 43.4333 -83.8500 289° West  Level FlightAware Approximate
Sat 04:21:00 PM 43.4334 -83.8623 289° West  Level Estimated

Login

Don't have an account? Register now (free) for customized features, flight alerts, and more!